createdAt,value
2023-05-30T00:03:40.000Z,3.08
2023-05-30T00:07:52.541Z,2.92
2023-05-30T00:12:05.731Z,2.95
2023-05-30T00:16:21.041Z,3.03
2023-05-30T00:20:35.167Z,3.10
2023-05-30T00:24:47.666Z,2.90
2023-05-30T00:29:00.206Z,3.00
2023-05-30T00:33:14.445Z,2.50
2023-05-30T00:37:27.730Z,2.60
2023-05-30T00:41:40.163Z,2.58
2023-05-30T00:45:55.309Z,3.03
2023-05-30T00:50:09.611Z,3.35
2023-05-30T00:54:23.705Z,3.50
2023-05-30T00:58:37.606Z,3.63
2023-05-30T01:02:51.621Z,3.55
2023-05-30T01:07:06.090Z,3.78
2023-05-30T01:11:36.496Z,2.83
2023-05-30T01:15:56.300Z,2.97
2023-05-30T01:20:21.889Z,3.15
2023-05-30T01:24:46.518Z,2.90
2023-05-30T01:29:04.227Z,3.38
2023-05-30T01:33:18.862Z,3.40
2023-05-30T01:37:33.586Z,2.95
2023-05-30T01:42:03.217Z,2.88
2023-05-30T01:46:38.509Z,3.25
2023-05-30T01:50:52.334Z,2.88
2023-05-30T01:55:07.501Z,2.80
2023-05-30T01:59:21.884Z,2.97
2023-05-30T02:03:34.497Z,2.85
2023-05-30T02:07:46.977Z,3.00
2023-05-30T02:12:00.419Z,2.75
2023-05-30T02:16:14.751Z,2.75
2023-05-30T02:20:27.547Z,2.70
2023-05-30T02:24:40.115Z,2.90
2023-05-30T02:28:52.724Z,3.00
2023-05-30T02:33:05.466Z,2.40
2023-05-30T02:37:17.958Z,2.88
2023-05-30T02:41:30.391Z,2.80
2023-05-30T02:45:42.900Z,2.97
2023-05-30T02:49:55.378Z,3.15
2023-05-30T02:54:08.152Z,3.15
2023-05-30T02:58:49.589Z,3.22
2023-05-30T03:07:36.937Z,2.90
2023-05-30T03:11:50.563Z,3.35
2023-05-30T03:16:03.203Z,2.92
2023-05-30T03:20:17.411Z,2.97
2023-05-30T03:24:31.074Z,2.92
2023-05-30T03:28:43.974Z,3.08
2023-05-30T03:33:08.211Z,2.72
2023-05-30T03:37:21.736Z,2.63
2023-05-30T03:41:34.300Z,2.65
2023-05-30T03:45:46.959Z,3.05
2023-05-30T03:50:01.187Z,2.70
2023-05-30T03:54:13.724Z,2.70
2023-05-30T03:58:26.300Z,2.97
2023-05-30T04:02:42.359Z,3.40
2023-05-30T04:06:55.165Z,3.00
2023-05-30T04:11:09.568Z,2.83
2023-05-30T04:15:22.005Z,2.88
2023-05-30T04:19:35.643Z,3.20
2023-05-30T04:23:48.630Z,2.65
2023-05-30T04:28:01.248Z,3.15
2023-05-30T04:32:14.224Z,2.65
2023-05-30T04:36:28.695Z,2.90
2023-05-30T04:40:41.083Z,2.85
2023-05-30T04:44:54.881Z,2.88
2023-05-30T04:49:07.741Z,2.92
2023-05-30T04:53:22.759Z,2.50
2023-05-30T04:57:38.488Z,2.63
2023-05-30T05:01:51.230Z,3.13
2023-05-30T05:06:03.907Z,3.08
2023-05-30T05:10:16.455Z,3.20
2023-05-30T05:14:29.066Z,2.92
2023-05-30T05:18:41.611Z,2.78
2023-05-30T05:22:55.751Z,3.10
2023-05-30T05:27:08.396Z,2.70
2023-05-30T05:31:21.073Z,2.55
2023-05-30T05:35:33.634Z,2.58
2023-05-30T05:39:46.152Z,3.03
2023-05-30T05:43:58.663Z,2.53
2023-05-30T05:48:11.327Z,2.70
2023-05-30T05:52:23.859Z,2.65
2023-05-30T05:56:37.529Z,2.72
2023-05-30T06:00:50.002Z,2.40
2023-05-30T06:05:02.667Z,2.45
2023-05-30T06:09:15.452Z,2.50
2023-05-30T06:13:28.031Z,2.40
2023-05-30T06:17:40.598Z,2.88
2023-05-30T06:21:53.309Z,2.45
2023-05-30T06:26:06.478Z,3.15
2023-05-30T06:30:20.718Z,3.38
2023-05-30T06:34:33.261Z,2.70
2023-05-30T06:38:46.430Z,2.60
2023-05-30T06:42:59.684Z,2.50
2023-05-30T06:47:12.340Z,2.90
2023-05-30T06:51:24.970Z,3.10
2023-05-30T06:55:37.521Z,3.30
2023-05-30T06:59:49.969Z,2.97
2023-05-30T07:04:02.450Z,2.35
2023-05-30T07:08:14.868Z,2.60
2023-05-30T07:12:28.428Z,2.40
2023-05-30T07:16:40.840Z,3.30
2023-05-30T07:20:53.508Z,2.80
2023-05-30T07:25:07.822Z,3.55
2023-05-30T07:29:20.209Z,3.75
2023-05-30T07:33:32.618Z,3.72
2023-05-30T07:37:46.574Z,3.55
2023-05-30T07:41:58.933Z,3.67
2023-05-30T07:46:11.601Z,3.58
2023-05-30T07:50:24.137Z,4.38
2023-05-30T07:54:36.618Z,3.47
2023-05-30T07:58:50.163Z,3.38
2023-05-30T08:03:02.578Z,3.47
2023-05-30T08:07:15.226Z,3.25
2023-05-30T08:11:27.705Z,3.30
2023-05-30T08:15:40.519Z,3.40
2023-05-30T08:19:57.359Z,3.20
2023-05-30T08:24:09.844Z,3.10
2023-05-30T08:28:23.124Z,3.38
2023-05-30T08:32:35.941Z,4.05
2023-05-30T08:36:48.488Z,3.50
2023-05-30T08:41:01.299Z,3.67
2023-05-30T08:45:13.852Z,3.63
2023-05-30T08:49:26.780Z,3.53
2023-05-30T08:53:44.353Z,3.60
2023-05-30T08:58:05.978Z,3.47
2023-05-30T09:02:20.998Z,3.13
2023-05-30T09:06:36.813Z,3.42
2023-05-30T09:10:50.555Z,3.20
2023-05-30T09:15:03.194Z,3.17
2023-05-30T09:19:16.326Z,3.10
2023-05-30T09:23:30.541Z,3.03
2023-05-30T09:27:48.363Z,3.53
2023-05-30T09:32:01.027Z,3.45
2023-05-30T09:36:21.547Z,3.38
2023-05-30T09:40:34.005Z,2.65
2023-05-30T09:44:55.852Z,3.33
2023-05-30T09:49:13.547Z,3.67
2023-05-30T09:53:33.648Z,4.47
2023-05-30T09:57:51.300Z,3.60
2023-05-30T10:02:03.879Z,3.67
2023-05-30T10:06:17.326Z,3.20
2023-05-30T10:10:31.842Z,3.20
2023-05-30T10:14:45.189Z,3.15
2023-05-30T10:19:01.154Z,3.92
2023-05-30T10:23:15.111Z,4.10
2023-05-30T10:27:33.039Z,4.43
2023-05-30T10:31:46.342Z,3.70
2023-05-30T10:35:59.497Z,4.30
2023-05-30T10:40:33.683Z,4.50
2023-05-30T10:45:12.057Z,5.40
2023-05-30T10:49:29.992Z,3.90
2023-05-30T10:53:44.882Z,4.20
2023-05-30T10:57:57.532Z,4.55
2023-05-30T11:02:10.183Z,3.30
2023-05-30T11:06:22.650Z,2.80
2023-05-30T11:10:35.106Z,3.28
2023-05-30T11:14:56.647Z,3.83
2023-05-30T11:19:12.775Z,3.80
2023-05-30T11:23:26.156Z,4.00
2023-05-30T11:27:38.752Z,4.75
2023-05-30T11:31:54.655Z,4.53
2023-05-30T11:36:10.515Z,3.50
2023-05-30T11:40:23.595Z,3.65
2023-05-30T11:44:36.244Z,4.75
2023-05-30T11:48:48.728Z,4.72
2023-05-30T11:53:01.448Z,5.57
2023-05-30T11:57:18.444Z,4.18
2023-05-30T12:01:31.287Z,4.90
2023-05-30T12:05:45.175Z,3.85
2023-05-30T12:09:57.893Z,3.45
2023-05-30T12:14:10.467Z,3.90
2023-05-30T12:18:23.006Z,4.40
2023-05-30T12:22:36.269Z,4.43
2023-05-30T12:26:50.033Z,4.38
2023-05-30T12:31:03.406Z,3.88
2023-05-30T12:35:20.031Z,4.05
2023-05-30T12:39:34.066Z,3.65
2023-05-30T12:43:46.495Z,3.83
2023-05-30T12:47:59.118Z,4.18
2023-05-30T12:52:15.608Z,5.07
2023-05-30T12:56:29.631Z,5.07
2023-05-30T13:00:42.162Z,2.92
2023-05-30T13:04:55.609Z,3.10
2023-05-30T13:09:08.122Z,3.38
2023-05-30T13:13:20.781Z,3.83
2023-05-30T13:17:33.330Z,5.03
2023-05-30T13:21:46.065Z,4.28
2023-05-30T13:25:58.596Z,4.28
2023-05-30T13:30:13.623Z,5.10
2023-05-30T13:34:26.451Z,4.90
2023-05-30T13:38:40.747Z,4.95
2023-05-30T13:42:53.276Z,4.75
2023-05-30T13:47:08.457Z,4.70
2023-05-30T13:51:22.055Z,5.15
2023-05-30T13:55:34.711Z,4.90
2023-05-30T13:59:47.453Z,5.40
2023-05-30T14:04:01.189Z,5.05
2023-05-30T14:08:13.820Z,4.43
2023-05-30T14:12:26.615Z,4.40
2023-05-30T14:16:39.061Z,5.30
2023-05-30T14:20:52.005Z,4.55
2023-05-30T14:25:05.328Z,3.88
2023-05-30T14:29:17.837Z,4.78
2023-05-30T14:33:30.207Z,4.97
2023-05-30T14:37:42.692Z,4.50
2023-05-30T14:41:56.099Z,4.47
2023-05-30T14:46:08.787Z,3.67
2023-05-30T14:50:22.665Z,3.72
2023-05-30T14:54:35.150Z,3.95
2023-05-30T14:58:47.601Z,3.53
2023-05-30T15:03:00.607Z,3.53
2023-05-30T15:07:13.677Z,3.47
2023-05-30T15:11:27.066Z,3.58
2023-05-30T15:15:39.549Z,3.22
2023-05-30T15:19:52.120Z,3.58
2023-05-30T15:24:04.862Z,3.00
2023-05-30T15:28:17.388Z,2.90
2023-05-30T15:32:29.793Z,2.95
2023-05-30T15:36:42.545Z,3.17
2023-05-30T15:40:56.472Z,3.20
2023-05-30T15:45:09.863Z,3.45
2023-05-30T15:49:22.247Z,2.80
2023-05-30T15:53:34.679Z,3.30
2023-05-30T15:57:47.172Z,2.95
2023-05-30T16:02:01.455Z,3.63
2023-05-30T16:06:13.943Z,3.92
2023-05-30T16:10:26.466Z,3.05
2023-05-30T16:14:38.919Z,3.83
2023-05-30T16:18:51.366Z,4.22
2023-05-30T16:23:03.768Z,3.08
2023-05-30T16:27:17.332Z,3.08
2023-05-30T16:31:30.451Z,4.45
2023-05-30T16:35:43.047Z,3.58
2023-05-30T16:39:55.539Z,4.35
2023-05-30T16:44:08.405Z,3.17
2023-05-30T16:48:20.917Z,3.10
2023-05-30T16:52:33.564Z,2.88
2023-05-30T16:56:46.472Z,3.08
2023-05-30T17:00:59.194Z,4.43
2023-05-30T17:05:12.235Z,4.07
2023-05-30T17:09:24.663Z,3.15
2023-05-30T17:13:37.142Z,2.95
2023-05-30T17:17:53.416Z,3.92
2023-05-30T17:22:06.231Z,4.10
2023-05-30T17:26:18.645Z,4.47
2023-05-30T17:30:31.072Z,4.10
2023-05-30T17:34:43.519Z,4.38
2023-05-30T17:38:55.955Z,3.72
2023-05-30T17:43:08.516Z,4.28
2023-05-30T17:47:21.114Z,5.05
2023-05-30T17:51:33.932Z,4.47
2023-05-30T17:55:46.600Z,5.10
2023-05-30T17:59:59.320Z,4.70
2023-05-30T18:04:11.906Z,5.10
2023-05-30T18:08:24.433Z,5.43
2023-05-30T18:12:36.878Z,5.88
2023-05-30T18:16:50.045Z,4.90
2023-05-30T18:21:04.915Z,6.57
2023-05-30T18:25:17.535Z,6.65
2023-05-30T18:29:30.462Z,6.00
2023-05-30T18:33:42.943Z,6.13
2023-05-30T18:37:55.441Z,6.35
2023-05-30T18:42:08.584Z,5.97
2023-05-30T18:46:22.401Z,3.78
2023-05-30T18:50:34.826Z,3.42
2023-05-30T18:54:47.301Z,4.00
2023-05-30T18:59:00.382Z,3.50
2023-05-30T19:03:12.970Z,4.15
2023-05-30T19:07:26.264Z,4.03
2023-05-30T19:11:38.693Z,4.90
2023-05-30T19:15:51.927Z,5.43
2023-05-30T19:20:04.593Z,7.82
2023-05-30T19:24:17.058Z,7.30
2023-05-30T19:28:31.745Z,8.13
2023-05-30T19:32:44.188Z,9.98
2023-05-30T19:36:57.384Z,8.65
2023-05-30T19:41:09.945Z,8.30
2023-05-30T19:45:22.654Z,8.20
2023-05-30T19:49:36.277Z,9.35
2023-05-30T19:53:48.771Z,9.48
2023-05-30T19:58:01.355Z,9.13
2023-05-30T20:02:13.962Z,8.95
2023-05-30T20:06:31.122Z,9.38
2023-05-30T20:10:43.625Z,8.45
2023-05-30T20:14:56.128Z,9.07
2023-05-30T20:19:08.614Z,9.43
2023-05-30T20:23:21.311Z,9.35
2023-05-30T20:27:38.631Z,8.25
2023-05-30T20:31:51.199Z,7.90
2023-05-30T20:36:03.674Z,8.32
2023-05-30T20:40:16.178Z,9.32
2023-05-30T20:44:28.673Z,12.40
2023-05-30T20:48:41.107Z,14.90
2023-05-30T20:52:53.718Z,14.27
2023-05-30T20:57:20.983Z,14.38
2023-05-30T21:01:37.295Z,14.15
2023-05-30T21:05:53.313Z,13.95
2023-05-30T21:10:07.041Z,11.88
2023-05-30T21:14:19.582Z,10.93
2023-05-30T21:18:34.503Z,11.20
2023-05-30T21:22:47.043Z,9.35
2023-05-30T21:26:59.728Z,9.77
2023-05-30T21:31:12.279Z,10.18
2023-05-30T21:35:24.963Z,9.88
2023-05-30T21:39:37.509Z,9.43
2023-05-30T21:43:50.009Z,10.55
2023-05-30T21:48:02.783Z,8.80
2023-05-30T21:52:15.361Z,8.07
2023-05-30T21:56:27.899Z,7.13
2023-05-30T22:00:42.339Z,6.15
2023-05-30T22:05:00.534Z,5.43
2023-05-30T22:09:13.029Z,5.15
2023-05-30T22:14:30.372Z,4.72
2023-05-30T22:18:43.097Z,5.15
2023-05-30T22:22:55.828Z,4.20
2023-05-30T22:27:11.266Z,4.53
2023-05-30T22:31:24.005Z,4.47
2023-05-30T22:35:36.724Z,4.18
2023-05-30T22:39:49.803Z,4.65
2023-05-30T22:44:08.455Z,4.45
2023-05-30T22:48:21.482Z,4.00
2023-05-30T22:52:34.052Z,4.30
2023-05-30T22:56:46.619Z,3.90
2023-05-30T23:00:59.328Z,4.60
2023-05-30T23:05:12.348Z,3.90
2023-05-30T23:09:25.120Z,4.43
2023-05-30T23:13:37.772Z,4.90
2023-05-30T23:17:50.419Z,3.88
2023-05-30T23:22:03.234Z,3.85
2023-05-30T23:26:15.907Z,3.47
2023-05-30T23:30:28.736Z,3.90
2023-05-30T23:34:41.675Z,3.67
2023-05-30T23:38:54.269Z,3.75
2023-05-30T23:43:06.771Z,3.83
2023-05-30T23:47:19.456Z,3.88
2023-05-30T23:51:32.530Z,3.67
2023-05-30T23:55:45.326Z,3.78
